createdAt,value
2016-10-29T00:00:29.039Z,9.29
2016-10-29T00:01:29.066Z,9.36
2016-10-29T00:02:29.077Z,9.36
2016-10-29T00:03:29.108Z,9.26
2016-10-29T00:04:44.040Z,9.29
2016-10-29T00:05:29.161Z,9.28
2016-10-29T00:06:29.414Z,9.21
2016-10-29T00:07:29.186Z,9.21
2016-10-29T00:08:29.202Z,9.15
2016-10-29T00:10:29.288Z,9.14
2016-10-29T00:11:29.271Z,9.05
2016-10-29T00:12:29.296Z,9.17
2016-10-29T00:13:29.322Z,9.05
2016-10-29T00:14:29.338Z,9.08
2016-10-29T00:15:29.354Z,9.18
2016-10-29T00:16:29.372Z,9.18
2016-10-29T00:17:29.399Z,9.18
2016-10-29T00:18:29.416Z,9.24
2016-10-29T00:19:29.439Z,9.14
2016-10-29T00:20:29.500Z,9.18
2016-10-29T00:21:29.482Z,9.18
2016-10-29T00:22:29.499Z,9.05
2016-10-29T00:23:29.517Z,9.17
2016-10-29T00:24:29.541Z,9.18
2016-10-29T00:25:44.476Z,9.2
2016-10-29T00:26:29.581Z,9.04
2016-10-29T00:27:29.610Z,9.08
2016-10-29T00:28:29.624Z,9.17
2016-10-29T00:29:29.647Z,9.2
2016-10-29T00:30:29.660Z,9.04
2016-10-29T00:31:29.678Z,9.08
2016-10-29T00:32:29.711Z,9.11
2016-10-29T00:33:29.722Z,9.05
2016-10-29T00:34:29.754Z,8.98
2016-10-29T00:35:29.768Z,9.1
2016-10-29T00:36:29.796Z,8.96
2016-10-29T00:37:29.813Z,9.01
2016-10-29T00:38:29.865Z,9.05
2016-10-29T00:40:29.868Z,9.1
2016-10-29T00:41:44.806Z,9.02
2016-10-29T00:42:29.910Z,9.11
2016-10-29T00:43:29.933Z,9.21
2016-10-29T00:44:29.986Z,9.08
2016-10-29T00:45:29.981Z,9.13
2016-10-29T00:46:29.995Z,9.13
2016-10-29T00:47:30.016Z,9.01
2016-10-29T00:48:30.042Z,9.04
2016-10-29T00:49:44.974Z,9.01
2016-10-29T00:50:30.077Z,9.11
2016-10-29T00:51:30.093Z,9.08
2016-10-29T00:52:30.368Z,9.08
2016-10-29T00:53:30.143Z,9.11
2016-10-29T00:54:30.155Z,9.13
2016-10-29T00:55:30.177Z,9.08
2016-10-29T00:56:45.114Z,9.01
2016-10-29T00:57:30.225Z,9.05
2016-10-29T00:58:30.239Z,9.15
2016-10-29T00:59:30.261Z,9.17
2016-10-29T01:01:30.311Z,9.17
2016-10-29T01:02:30.321Z,9.1
2016-10-29T01:03:45.262Z,9.08
2016-10-29T01:04:30.365Z,9.04
2016-10-29T01:05:45.303Z,9.02
2016-10-29T01:06:45.320Z,9.11
2016-10-29T01:07:30.429Z,9.13
2016-10-29T01:08:30.445Z,9.05
2016-10-29T01:09:30.463Z,9.08
2016-10-29T01:10:30.485Z,9.08
2016-10-29T01:11:30.511Z,9.08
2016-10-29T01:12:30.521Z,9.1
2016-10-29T01:13:30.545Z,9.1
2016-10-29T01:14:30.568Z,9.14
2016-10-29T01:15:30.636Z,9.05
2016-10-29T01:16:30.606Z,9.18
2016-10-29T01:17:30.631Z,9.17
2016-10-29T01:18:30.951Z,9.1
2016-10-29T01:19:30.675Z,9.11
2016-10-29T01:20:30.999Z,9.21
2016-10-29T01:21:30.716Z,9.13
2016-10-29T01:22:30.732Z,9.14
2016-10-29T01:23:30.752Z,9.23
2016-10-29T01:24:30.770Z,9.11
2016-10-29T01:25:45.708Z,9.01
2016-10-29T01:26:30.817Z,8.99
2016-10-29T01:27:30.839Z,9.04
2016-10-29T01:28:45.770Z,9.04
2016-10-29T01:29:30.878Z,9.11
2016-10-29T01:30:30.893Z,9.11
2016-10-29T01:31:30.918Z,9.1
2016-10-29T01:32:31.137Z,8.94
2016-10-29T01:33:30.952Z,9.05
2016-10-29T01:34:30.980Z,8.91
2016-10-29T01:35:31.042Z,8.94
2016-10-29T01:36:31.018Z,8.89
2016-10-29T01:37:31.039Z,8.95
2016-10-29T01:38:31.063Z,9.01
2016-10-29T01:39:31.084Z,8.99
2016-10-29T01:40:31.104Z,8.81
2016-10-29T01:41:31.117Z,8.92
2016-10-29T01:42:31.139Z,8.87
2016-10-29T01:43:31.159Z,8.91
2016-10-29T01:44:46.098Z,8.83
2016-10-29T01:45:31.211Z,8.81
2016-10-29T01:46:31.222Z,8.84
2016-10-29T01:47:31.238Z,8.89
2016-10-29T01:49:31.279Z,8.87
2016-10-29T01:50:46.223Z,8.89
2016-10-29T01:51:31.321Z,9.02
2016-10-29T01:52:31.345Z,8.87
2016-10-29T01:53:31.360Z,8.83
2016-10-29T01:54:31.379Z,8.94
2016-10-29T01:55:46.323Z,8.8
2016-10-29T01:56:31.427Z,8.81
2016-10-29T01:57:31.451Z,8.87
2016-10-29T01:58:31.475Z,8.89
2016-10-29T01:59:31.486Z,8.86
2016-10-29T02:00:46.677Z,8.73
2016-10-29T02:01:31.528Z,8.74
2016-10-29T02:02:31.552Z,8.73
2016-10-29T02:03:31.568Z,8.68
2016-10-29T02:04:31.594Z,8.7
2016-10-29T02:05:31.608Z,8.7
2016-10-29T02:06:31.637Z,8.65
2016-10-29T02:07:31.701Z,8.66
2016-10-29T02:08:46.589Z,8.73
2016-10-29T02:09:31.685Z,8.65
2016-10-29T02:10:31.709Z,8.76
2016-10-29T02:11:31.725Z,8.77
2016-10-29T02:12:31.749Z,8.77
2016-10-29T02:13:46.684Z,8.79
2016-10-29T02:14:31.790Z,8.76
2016-10-29T02:15:31.812Z,8.77
2016-10-29T02:16:46.749Z,8.71
2016-10-29T02:17:31.844Z,8.8
2016-10-29T02:19:31.899Z,8.7
2016-10-29T02:20:31.908Z,8.7
2016-10-29T02:21:31.928Z,8.65
2016-10-29T02:23:31.970Z,8.52
2016-10-29T02:24:32.004Z,8.55
2016-10-29T02:25:32.018Z,8.74
2016-10-29T02:26:32.281Z,8.61
2016-10-29T02:27:32.053Z,8.56
2016-10-29T02:28:32.079Z,8.58
2016-10-29T02:29:32.095Z,8.55
2016-10-29T02:30:32.112Z,8.58
2016-10-29T02:31:47.053Z,8.63
2016-10-29T02:32:32.155Z,8.63
2016-10-29T02:34:32.227Z,8.71
2016-10-29T02:35:32.218Z,8.66
2016-10-29T02:36:32.268Z,8.66
2016-10-29T02:37:32.257Z,8.7
2016-10-29T02:38:32.278Z,8.65
2016-10-29T02:39:32.305Z,8.7
2016-10-29T02:40:32.320Z,8.58
2016-10-29T02:41:32.339Z,8.62
2016-10-29T02:42:32.611Z,8.65
2016-10-29T02:43:32.384Z,8.56
2016-10-29T02:44:32.401Z,8.58
2016-10-29T02:45:32.431Z,8.52
2016-10-29T02:46:32.439Z,8.44
2016-10-29T02:47:32.462Z,8.44
2016-10-29T02:48:32.477Z,8.45
2016-10-29T02:49:32.505Z,8.52
2016-10-29T02:50:32.517Z,8.5
2016-10-29T02:52:32.561Z,8.5
2016-10-29T02:53:32.583Z,8.55
2016-10-29T02:54:32.609Z,8.48
2016-10-29T02:55:47.541Z,8.38
2016-10-29T02:56:47.558Z,8.45
2016-10-29T02:57:32.664Z,8.41
2016-10-29T02:58:32.686Z,8.41
2016-10-29T02:59:32.698Z,8.53
2016-10-29T03:00:32.719Z,8.53
2016-10-29T03:01:32.777Z,8.43
2016-10-29T03:02:32.754Z,8.48
2016-10-29T03:03:47.699Z,8.55
2016-10-29T03:04:32.799Z,8.53
2016-10-29T03:05:32.822Z,8.62
2016-10-29T03:06:32.850Z,8.61
2016-10-29T03:07:32.865Z,8.63
2016-10-29T03:08:32.922Z,8.65
2016-10-29T03:09:32.903Z,8.59
2016-10-29T03:10:32.921Z,8.76
2016-10-29T03:12:47.880Z,8.74
2016-10-29T03:13:33.018Z,8.76
2016-10-29T03:14:33.000Z,8.79
2016-10-29T03:15:33.020Z,8.83
2016-10-29T03:16:33.051Z,8.79
2016-10-29T03:17:33.069Z,8.79
2016-10-29T03:18:33.084Z,8.7
2016-10-29T03:19:48.019Z,8.7
2016-10-29T03:20:33.118Z,8.65
2016-10-29T03:21:33.143Z,8.59
2016-10-29T03:22:33.168Z,8.63
2016-10-29T03:24:33.205Z,8.56
2016-10-29T03:25:33.230Z,8.56
2016-10-29T03:26:33.245Z,8.59
2016-10-29T03:27:33.273Z,8.45
2016-10-29T03:28:33.284Z,8.5
2016-10-29T03:29:33.350Z,8.55
2016-10-29T03:30:33.379Z,8.45
2016-10-29T03:31:48.262Z,8.45
2016-10-29T03:32:33.368Z,8.34
2016-10-29T03:33:33.395Z,8.45
2016-10-29T03:34:33.407Z,8.43
2016-10-29T03:35:48.342Z,8.44
2016-10-29T03:36:48.373Z,8.56
2016-10-29T03:37:33.470Z,8.41
2016-10-29T03:38:33.793Z,8.3
2016-10-29T03:39:33.511Z,8.48
2016-10-29T03:40:33.532Z,8.4
2016-10-29T03:41:33.542Z,8.43
2016-10-29T03:42:33.565Z,8.38
2016-10-29T03:43:33.589Z,8.45
2016-10-29T03:44:33.612Z,8.47
2016-10-29T03:45:33.632Z,8.36
2016-10-29T03:46:33.685Z,8.4
2016-10-29T03:47:33.661Z,8.37
2016-10-29T03:48:48.603Z,8.37
2016-10-29T03:49:33.706Z,8.3
2016-10-29T03:50:33.724Z,8.2
2016-10-29T03:51:48.666Z,8.33
2016-10-29T03:52:33.772Z,8.2
2016-10-29T03:53:33.783Z,8.28
2016-10-29T03:54:33.805Z,8.25
2016-10-29T03:55:33.828Z,8.29
2016-10-29T03:56:33.846Z,8.28
2016-10-29T03:57:33.865Z,8.25
2016-10-29T03:59:33.912Z,8.23
2016-10-29T04:00:33.924Z,8.2
2016-10-29T04:01:33.946Z,8.3
2016-10-29T04:02:48.881Z,8.37
2016-10-29T04:03:33.985Z,8.3
2016-10-29T04:04:34.014Z,8.33
2016-10-29T04:05:34.027Z,8.3
2016-10-29T04:06:48.969Z,8.29
2016-10-29T04:07:34.071Z,8.2
2016-10-29T04:08:34.090Z,8.23
2016-10-29T04:09:34.115Z,8.25
2016-10-29T04:10:34.136Z,8.2
2016-10-29T04:11:34.152Z,8.19
2016-10-29T04:12:34.168Z,8.18
2016-10-29T04:13:34.188Z,8.23
2016-10-29T04:14:34.254Z,8.11
2016-10-29T04:15:34.228Z,8.08
2016-10-29T04:16:34.257Z,8.11
2016-10-29T04:17:34.269Z,8.11
2016-10-29T04:18:34.286Z,8.08
2016-10-29T04:19:34.309Z,8.11
2016-10-29T04:20:34.328Z,8.15
2016-10-29T04:21:34.348Z,8.2
2016-10-29T04:22:34.374Z,8.25
2016-10-29T04:23:34.381Z,8.19
2016-10-29T04:24:34.409Z,8.26
2016-10-29T04:25:34.429Z,8.23
2016-10-29T04:26:34.446Z,8.22
2016-10-29T04:27:34.473Z,8.26
2016-10-29T04:28:34.488Z,8.12
2016-10-29T04:29:34.507Z,8.2
2016-10-29T04:30:34.524Z,8.15
2016-10-29T04:31:34.548Z,8.12
2016-10-29T04:32:34.566Z,8.08
2016-10-29T04:33:34.583Z,8.12
2016-10-29T04:34:34.609Z,8.04
2016-10-29T04:35:34.625Z,8.07
2016-10-29T04:36:34.647Z,8.07
2016-10-29T04:37:34.664Z,8.08
2016-10-29T04:38:49.599Z,8.16
2016-10-29T04:39:34.710Z,8.15
2016-10-29T04:40:34.728Z,8.12
2016-10-29T04:41:34.739Z,8.16
2016-10-29T04:42:34.761Z,8.12
2016-10-29T04:44:34.804Z,8.08
2016-10-29T04:45:34.832Z,8.2
2016-10-29T04:46:34.843Z,8.08
2016-10-29T04:47:34.862Z,8.2
2016-10-29T04:48:34.881Z,8.33
2016-10-29T04:49:34.904Z,8.26
2016-10-29T04:50:34.925Z,8.25
2016-10-29T04:51:34.941Z,8.2
2016-10-29T04:52:34.961Z,8.19
2016-10-29T04:53:34.983Z,8.11
2016-10-29T04:54:49.921Z,8.23
2016-10-29T04:55:35.025Z,8.19
2016-10-29T04:57:35.058Z,8.25
2016-10-29T04:58:35.088Z,8.16
2016-10-29T04:59:35.099Z,8.25
2016-10-29T05:00:35.124Z,8.23
2016-10-29T05:01:35.140Z,8.19
2016-10-29T05:02:35.158Z,8.19
2016-10-29T05:03:35.184Z,8.12
2016-10-29T05:04:35.199Z,8.11
2016-10-29T05:05:50.136Z,8.04
2016-10-29T05:06:35.240Z,8.19
2016-10-29T05:07:35.261Z,8.12
2016-10-29T05:08:35.279Z,8.11
2016-10-29T05:09:35.348Z,8.26
2016-10-29T05:10:50.237Z,8.23
2016-10-29T05:11:35.638Z,8.12
2016-10-29T05:12:35.363Z,8.16
2016-10-29T05:14:35.395Z,8.15
2016-10-29T05:15:35.421Z,8.19
2016-10-29T05:16:35.443Z,8.23
2016-10-29T05:17:35.455Z,8.23
2016-10-29T05:18:35.481Z,8.23
2016-10-29T05:19:35.491Z,8.18
2016-10-29T05:20:35.521Z,8.22
2016-10-29T05:21:35.538Z,8.12
2016-10-29T05:22:35.557Z,8.25
2016-10-29T05:23:35.576Z,8.22
2016-10-29T05:24:35.600Z,8.11
2016-10-29T05:25:35.609Z,8.19
2016-10-29T05:26:50.550Z,8.08
2016-10-29T05:27:35.652Z,8.02
2016-10-29T05:28:35.671Z,8.04
2016-10-29T05:29:35.695Z,8.05
2016-10-29T05:30:35.716Z,8.12
2016-10-29T05:31:35.735Z,8.23
2016-10-29T05:32:35.748Z,8.25
2016-10-29T05:33:35.780Z,8.19
2016-10-29T05:34:36.036Z,8.12
2016-10-29T05:35:36.562Z,8.11
2016-10-29T05:36:35.834Z,8.2
2016-10-29T05:37:35.853Z,8.23
2016-10-29T05:38:36.126Z,8.18
2016-10-29T05:39:35.896Z,8.22
2016-10-29T05:40:35.920Z,8.2
2016-10-29T05:41:50.855Z,8.26
2016-10-29T05:42:35.953Z,8.16
2016-10-29T05:43:36.009Z,8.28
2016-10-29T05:44:35.986Z,8.28
2016-10-29T05:45:36.009Z,8.36
2016-10-29T05:46:36.035Z,8.36
2016-10-29T05:47:36.044Z,8.45
2016-10-29T05:48:36.076Z,8.33
2016-10-29T05:49:36.397Z,8.4
2016-10-29T05:50:36.113Z,8.43
2016-10-29T05:51:36.136Z,8.33
2016-10-29T05:52:51.068Z,8.36
2016-10-29T05:53:36.176Z,8.33
2016-10-29T05:54:36.187Z,8.23
2016-10-29T05:55:36.216Z,8.22
2016-10-29T05:56:36.230Z,8.3
2016-10-29T05:57:36.249Z,8.41
2016-10-29T05:58:36.275Z,8.37
2016-10-29T05:59:36.292Z,8.4
2016-10-29T06:00:36.307Z,8.4
2016-10-29T06:01:36.330Z,8.29
2016-10-29T06:02:36.353Z,8.38
2016-10-29T06:03:36.374Z,8.58
2016-10-29T06:04:36.387Z,8.44
2016-10-29T06:05:36.404Z,8.44
2016-10-29T06:06:36.421Z,8.5
2016-10-29T06:07:36.451Z,8.47
2016-10-29T06:08:36.467Z,8.44
2016-10-29T06:09:36.491Z,8.48
2016-10-29T06:10:36.546Z,8.34
2016-10-29T06:12:36.543Z,8.44
2016-10-29T06:13:51.481Z,8.48
2016-10-29T06:14:36.587Z,8.55
2016-10-29T06:15:36.602Z,8.55
2016-10-29T06:16:36.636Z,8.56
2016-10-29T06:17:36.645Z,8.55
2016-10-29T06:18:36.668Z,8.53
2016-10-29T06:20:36.733Z,8.59
2016-10-29T06:21:36.721Z,8.61
2016-10-29T06:22:36.752Z,8.62
2016-10-29T06:23:36.769Z,8.68
2016-10-29T06:24:51.702Z,8.58
2016-10-29T06:25:36.806Z,8.53
2016-10-29T06:26:36.826Z,8.56
2016-10-29T06:27:36.840Z,8.52
2016-10-29T06:29:51.809Z,8.53
2016-10-29T06:30:36.906Z,8.65
2016-10-29T06:31:36.930Z,8.62
2016-10-29T06:32:36.954Z,8.74
2016-10-29T06:34:36.992Z,8.81
2016-10-29T06:35:37.010Z,8.81
2016-10-29T06:36:37.031Z,8.83
2016-10-29T06:37:37.048Z,8.92
2016-10-29T06:38:37.065Z,8.91
2016-10-29T06:39:37.096Z,8.86
2016-10-29T06:40:37.114Z,8.89
2016-10-29T06:41:37.128Z,8.87
2016-10-29T06:42:37.149Z,8.86
2016-10-29T06:43:37.174Z,8.96
2016-10-29T06:44:37.193Z,8.94
2016-10-29T06:46:37.234Z,9.05
2016-10-29T06:47:37.261Z,9.04
2016-10-29T06:48:37.275Z,9.15
2016-10-29T06:51:37.338Z,9.26
2016-10-29T06:52:37.352Z,9.33
2016-10-29T06:53:37.623Z,9.35
2016-10-29T06:54:37.394Z,9.35
2016-10-29T06:55:37.418Z,9.43
2016-10-29T06:56:37.433Z,9.39
2016-10-29T06:57:37.456Z,9.42
2016-10-29T06:58:37.727Z,9.43
2016-10-29T06:59:37.501Z,9.51
2016-10-29T07:00:37.517Z,9.58
2016-10-29T07:01:52.455Z,9.54
2016-10-29T07:02:37.565Z,9.57
2016-10-29T07:03:37.581Z,9.57
2016-10-29T07:04:37.607Z,9.65
2016-10-29T07:05:37.620Z,9.65
2016-10-29T07:06:37.645Z,9.66
2016-10-29T07:07:37.663Z,9.66
2016-10-29T07:08:37.677Z,9.84
2016-10-29T07:10:37.726Z,9.83
2016-10-29T07:11:37.740Z,9.83
2016-10-29T07:12:37.769Z,9.93
2016-10-29T07:13:37.793Z,9.96
2016-10-29T07:14:37.813Z,10.02
2016-10-29T07:15:37.827Z,9.96
2016-10-29T07:16:52.772Z,10.04
2016-10-29T07:17:37.872Z,9.99
2016-10-29T07:18:37.883Z,10.05
2016-10-29T07:19:37.959Z,10.04
2016-10-29T07:20:37.938Z,10.02
2016-10-29T07:21:37.955Z,9.99
2016-10-29T07:22:37.969Z,10.09
2016-10-29T07:23:52.917Z,10.09
2016-10-29T07:24:38.014Z,10.04
2016-10-29T07:25:38.042Z,10.22
2016-10-29T07:26:38.064Z,10.18
2016-10-29T07:27:38.081Z,10.14
2016-10-29T07:28:53.016Z,10.2
2016-10-29T07:29:38.122Z,10.22
2016-10-29T07:30:38.141Z,10.3
2016-10-29T07:31:38.168Z,10.3
2016-10-29T07:32:38.178Z,10.26
2016-10-29T07:33:38.206Z,10.3
2016-10-29T07:34:38.279Z,10.4
2016-10-29T07:35:38.253Z,10.52
2016-10-29T07:36:38.265Z,10.45
2016-10-29T07:37:38.295Z,10.45
2016-10-29T07:38:38.307Z,10.48
2016-10-29T07:39:38.330Z,10.48
2016-10-29T07:40:38.353Z,10.44
2016-10-29T07:41:38.383Z,10.48
2016-10-29T07:42:38.392Z,10.52
2016-10-29T07:43:38.411Z,10.48
2016-10-29T07:44:38.436Z,10.48
2016-10-29T07:45:38.455Z,10.55
2016-10-29T07:46:38.478Z,10.55
2016-10-29T07:47:38.495Z,10.63
2016-10-29T07:49:38.540Z,10.7
2016-10-29T07:50:38.568Z,10.63
2016-10-29T07:51:38.583Z,10.71
2016-10-29T07:52:38.598Z,10.73
2016-10-29T07:53:38.624Z,10.66
2016-10-29T07:54:38.652Z,10.66
2016-10-29T07:55:38.667Z,10.7
2016-10-29T07:56:38.686Z,10.66
2016-10-29T07:57:38.717Z,10.64
2016-10-29T07:58:38.733Z,10.74
2016-10-29T07:59:38.758Z,10.76
2016-10-29T08:00:53.690Z,10.89
2016-10-29T08:01:38.798Z,10.91
2016-10-29T08:02:38.819Z,10.82
2016-10-29T08:03:38.835Z,10.94
2016-10-29T08:04:53.777Z,10.86
2016-10-29T08:05:38.883Z,10.94
2016-10-29T08:06:38.903Z,10.91
2016-10-29T08:07:38.931Z,10.81
2016-10-29T08:08:38.947Z,10.91
2016-10-29T08:09:38.966Z,10.92
2016-10-29T08:10:54.159Z,11
2016-10-29T08:11:39.010Z,10.99
2016-10-29T08:12:39.038Z,11.06
2016-10-29T08:13:39.053Z,11.02
2016-10-29T08:14:39.076Z,11.07
2016-10-29T08:15:54.011Z,11.17
2016-10-29T08:16:54.030Z,11.17
2016-10-29T08:17:39.140Z,11.28
2016-10-29T08:19:39.181Z,11.32
2016-10-29T08:20:54.117Z,11.28
2016-10-29T08:21:39.223Z,11.37
2016-10-29T08:22:39.244Z,11.44
2016-10-29T08:23:39.268Z,11.42
2016-10-29T08:24:39.283Z,11.37
2016-10-29T08:25:39.310Z,11.42
2016-10-29T08:26:54.748Z,11.44
2016-10-29T08:27:39.383Z,11.47
2016-10-29T08:28:39.373Z,11.54
2016-10-29T08:29:39.400Z,11.54
2016-10-29T08:30:39.425Z,11.6
2016-10-29T08:31:54.353Z,11.54
2016-10-29T08:32:39.459Z,11.58
2016-10-29T08:33:39.485Z,11.7
2016-10-29T08:34:39.758Z,11.65
2016-10-29T08:35:39.519Z,11.64
2016-10-29T08:36:54.460Z,11.58
2016-10-29T08:37:39.570Z,11.55
2016-10-29T08:38:39.592Z,11.62
2016-10-29T08:39:39.844Z,11.6
2016-10-29T08:40:39.633Z,11.67
2016-10-29T08:41:39.661Z,11.61
2016-10-29T08:42:39.676Z,11.78
2016-10-29T08:43:39.693Z,12.01
2016-10-29T08:44:39.725Z,12.09
2016-10-29T08:45:39.787Z,12.2
2016-10-29T08:46:39.805Z,12.34
2016-10-29T08:47:54.702Z,12.38
2016-10-29T08:48:40.107Z,12.29
2016-10-29T08:49:39.836Z,12.29
2016-10-29T08:50:39.861Z,12.2
2016-10-29T08:51:54.794Z,12.05
2016-10-29T08:52:39.898Z,12.12
2016-10-29T08:53:40.175Z,12.1
2016-10-29T08:54:39.941Z,11.95
2016-10-29T08:55:39.965Z,12.05
2016-10-29T08:56:39.992Z,12.04
2016-10-29T08:57:40.010Z,12.05
2016-10-29T08:58:40.681Z,12.04
2016-10-29T08:59:54.976Z,12.05
2016-10-29T09:00:40.083Z,12.13
2016-10-29T09:01:40.100Z,12.19
2016-10-29T09:02:40.126Z,12.35
2016-10-29T09:03:40.145Z,12.29
2016-10-29T09:04:40.162Z,12.32
2016-10-29T09:05:40.195Z,12.27
2016-10-29T09:06:40.211Z,12.45
2016-10-29T09:07:40.234Z,12.46
2016-10-29T09:08:40.256Z,12.59
2016-10-29T09:09:40.321Z,12.45
2016-10-29T09:10:40.603Z,12.49
2016-10-29T09:11:40.330Z,12.49
2016-10-29T09:12:40.349Z,12.54
2016-10-29T09:13:40.376Z,12.54
2016-10-29T09:14:40.393Z,12.53
2016-10-29T09:15:40.414Z,12.64
2016-10-29T09:16:40.438Z,12.77
2016-10-29T09:17:40.502Z,12.83
2016-10-29T09:18:40.482Z,12.7
2016-10-29T09:19:40.509Z,12.72
2016-10-29T09:20:40.533Z,12.65
2016-10-29T09:21:40.547Z,12.62
2016-10-29T09:22:40.569Z,12.68
2016-10-29T09:23:55.525Z,12.49
2016-10-29T09:24:40.621Z,12.64
2016-10-29T09:25:40.639Z,12.65
2016-10-29T09:27:40.685Z,12.82
2016-10-29T09:28:40.708Z,12.82
2016-10-29T09:29:40.732Z,12.74
2016-10-29T09:30:40.756Z,12.85
2016-10-29T09:31:40.773Z,12.85
2016-10-29T09:32:40.799Z,12.82
2016-10-29T09:33:40.821Z,12.86
2016-10-29T09:34:55.760Z,12.75
2016-10-29T09:35:55.782Z,12.79
2016-10-29T09:36:40.892Z,12.65
2016-10-29T09:37:40.911Z,12.68
2016-10-29T09:38:40.945Z,12.64
2016-10-29T09:39:55.879Z,12.68
2016-10-29T09:40:40.986Z,12.65
2016-10-29T09:41:41.006Z,12.67
2016-10-29T09:42:41.025Z,12.7
2016-10-29T09:43:41.051Z,12.78
2016-10-29T09:44:41.074Z,12.85
2016-10-29T09:45:41.290Z,12.9
2016-10-29T09:46:41.119Z,12.67
2016-10-29T09:47:41.134Z,12.57
2016-10-29T09:48:41.161Z,12.47
2016-10-29T09:49:41.185Z,12.41
2016-10-29T09:50:41.209Z,12.46
2016-10-29T09:51:41.272Z,12.6
2016-10-29T09:52:41.550Z,12.56
2016-10-29T09:53:41.275Z,12.49
2016-10-29T09:54:41.291Z,12.46
2016-10-29T09:55:56.232Z,12.65
2016-10-29T09:56:41.340Z,12.64
2016-10-29T09:57:41.366Z,12.68
2016-10-29T09:58:41.421Z,12.83
2016-10-29T09:59:41.406Z,12.72
2016-10-29T10:00:56.387Z,12.77
2016-10-29T10:01:41.451Z,12.71
2016-10-29T10:02:41.479Z,12.77
2016-10-29T10:03:41.493Z,12.77
2016-10-29T10:04:41.524Z,12.67
2016-10-29T10:05:42.048Z,12.67
2016-10-29T10:06:41.583Z,12.56
2016-10-29T10:07:41.589Z,12.53
2016-10-29T10:08:41.618Z,12.62
2016-10-29T10:09:41.637Z,12.64
2016-10-29T10:10:41.660Z,12.7
2016-10-29T10:12:41.702Z,12.68
2016-10-29T10:13:41.984Z,12.67
2016-10-29T10:14:41.750Z,12.71
2016-10-29T10:15:41.775Z,12.68
2016-10-29T10:16:41.794Z,12.71
2016-10-29T10:17:42.114Z,12.83
2016-10-29T10:18:41.842Z,13
2016-10-29T10:19:41.864Z,13.07
2016-10-29T10:20:41.889Z,13.22
2016-10-29T10:21:56.827Z,13.2
2016-10-29T10:22:41.930Z,13.33
2016-10-29T10:23:41.958Z,13.48
2016-10-29T10:24:41.988Z,13.36
2016-10-29T10:26:56.944Z,13.26
2016-10-29T10:27:56.975Z,13.23
2016-10-29T10:28:42.068Z,13.22
2016-10-29T10:29:42.092Z,13.38
2016-10-29T10:30:42.113Z,13.57
2016-10-29T10:31:42.146Z,13.59
2016-10-29T10:32:42.164Z,13.54
2016-10-29T10:33:42.187Z,13.54
2016-10-29T10:34:57.131Z,13.57
2016-10-29T10:35:42.231Z,13.69
2016-10-29T10:36:42.258Z,13.63
2016-10-29T10:37:42.278Z,13.63
2016-10-29T10:38:42.302Z,13.62
2016-10-29T10:39:42.326Z,13.57
2016-10-29T10:40:42.378Z,13.51
2016-10-29T10:41:42.370Z,13.51
2016-10-29T10:42:42.405Z,13.36
2016-10-29T10:43:42.421Z,13.38
2016-10-29T10:44:42.446Z,13.33
2016-10-29T10:45:42.717Z,13.39
2016-10-29T10:47:42.511Z,13.41
2016-10-29T10:48:42.528Z,13.22
2016-10-29T10:49:42.555Z,13.3
2016-10-29T10:50:42.588Z,13.23
2016-10-29T10:51:42.602Z,13.3
2016-10-29T10:52:57.545Z,13.33
2016-10-29T10:53:57.565Z,13.46
2016-10-29T10:54:42.676Z,13.48
2016-10-29T10:55:42.707Z,13.54
2016-10-29T10:56:42.736Z,13.52
2016-10-29T10:57:42.741Z,13.49
2016-10-29T10:58:57.684Z,13.48
2016-10-29T10:59:42.789Z,13.52
2016-10-29T11:00:42.818Z,13.55
2016-10-29T11:01:42.847Z,13.52
2016-10-29T11:02:42.859Z,13.59
2016-10-29T11:03:42.878Z,13.6
2016-10-29T11:04:42.896Z,13.62
2016-10-29T11:05:57.847Z,13.67
2016-10-29T11:06:57.866Z,13.63
2016-10-29T11:07:42.972Z,13.63
2016-10-29T11:08:42.990Z,13.57
2016-10-29T11:09:43.016Z,13.54
2016-10-29T11:11:57.979Z,13.44
2016-10-29T11:12:43.089Z,13.39
2016-10-29T11:13:43.113Z,13.45
2016-10-29T11:14:58.049Z,13.46
2016-10-29T11:15:43.156Z,13.38
2016-10-29T11:16:43.179Z,13.44
2016-10-29T11:17:58.129Z,13.46
2016-10-29T11:19:43.252Z,13.36
2016-10-29T11:20:58.193Z,13.29
2016-10-29T11:22:43.313Z,13.38
2016-10-29T11:23:43.345Z,13.38
2016-10-29T11:24:43.382Z,13.33
2016-10-29T11:25:43.391Z,13.33
2016-10-29T11:26:43.414Z,13.32
2016-10-29T11:27:43.436Z,13.38
2016-10-29T11:28:43.450Z,13.3
2016-10-29T11:29:43.484Z,13.22
2016-10-29T11:30:58.420Z,13.17
2016-10-29T11:31:43.532Z,13.19
2016-10-29T11:33:43.567Z,13.04
2016-10-29T11:34:43.846Z,13.08
2016-10-29T11:35:43.617Z,13.01
2016-10-29T11:37:43.664Z,12.97
2016-10-29T11:38:43.685Z,12.93
2016-10-29T11:39:43.706Z,13.12
2016-10-29T11:40:43.728Z,13.07
2016-10-29T11:41:43.748Z,13.19
2016-10-29T11:42:43.777Z,13.23
2016-10-29T11:43:43.802Z,13.15
2016-10-29T11:44:43.823Z,13.19
2016-10-29T11:45:43.841Z,13.17
2016-10-29T11:47:43.894Z,13.26
2016-10-29T11:48:43.914Z,13.25
2016-10-29T11:49:43.929Z,13.19
2016-10-29T11:50:43.955Z,13.22
2016-10-29T11:51:43.987Z,13.25
2016-10-29T11:52:44.005Z,13.2
2016-10-29T11:53:44.028Z,13.2
2016-10-29T11:54:44.049Z,13.32
2016-10-29T11:55:44.075Z,13.33
2016-10-29T11:56:59.013Z,13.38
2016-10-29T11:57:44.111Z,13.49
2016-10-29T11:58:44.141Z,13.33
2016-10-29T11:59:44.193Z,13.29
2016-10-29T12:00:44.186Z,13.33
2016-10-29T12:01:59.126Z,13.25
2016-10-29T12:02:44.239Z,13.23
2016-10-29T12:03:44.255Z,13.32
2016-10-29T12:04:44.595Z,13.17
2016-10-29T12:05:44.701Z,13.2
2016-10-29T12:06:44.324Z,13.22
2016-10-29T12:07:44.342Z,13.1
2016-10-29T12:08:44.365Z,13.12
2016-10-29T12:09:44.385Z,13.15
2016-10-29T12:10:44.411Z,13.23
2016-10-29T12:11:44.439Z,13.2
2016-10-29T12:12:44.656Z,13.3
2016-10-29T12:13:44.478Z,13.36
2016-10-29T12:14:59.421Z,13.32
2016-10-29T12:15:44.531Z,13.28
2016-10-29T12:16:44.561Z,13.3
2016-10-29T12:17:44.571Z,13.29
2016-10-29T12:18:44.600Z,13.23
2016-10-29T12:19:44.612Z,13.17
2016-10-29T12:20:44.635Z,13.17
2016-10-29T12:21:44.665Z,13.17
2016-10-29T12:22:44.682Z,13.17
2016-10-29T12:23:44.712Z,13
2016-10-29T12:24:44.730Z,12.96
2016-10-29T12:26:44.776Z,12.85
2016-10-29T12:27:44.800Z,12.9
2016-10-29T12:28:44.822Z,12.92
2016-10-29T12:29:44.839Z,12.9
2016-10-29T12:30:44.863Z,12.89
2016-10-29T12:32:45.207Z,12.86
2016-10-29T12:33:59.851Z,12.92
2016-10-29T12:34:44.960Z,12.92
2016-10-29T12:35:44.979Z,12.92
2016-10-29T12:36:45.003Z,12.9
2016-10-29T12:37:45.033Z,12.86
2016-10-29T12:38:45.049Z,12.92
2016-10-29T12:39:45.078Z,12.86
2016-10-29T12:40:45.096Z,12.86
2016-10-29T12:41:45.110Z,12.85
2016-10-29T12:42:45.146Z,12.86
2016-10-29T12:43:45.161Z,12.85
2016-10-29T12:45:00.101Z,12.82
2016-10-29T12:45:45.201Z,12.78
2016-10-29T12:46:45.229Z,12.79
2016-10-29T12:47:45.283Z,12.75
2016-10-29T12:48:45.526Z,12.68
2016-10-29T12:50:00.210Z,12.67
2016-10-29T12:50:45.324Z,12.67
2016-10-29T12:51:45.345Z,12.65
2016-10-29T12:52:45.367Z,12.62
2016-10-29T12:54:45.404Z,12.62
2016-10-29T12:55:45.436Z,12.75
2016-10-29T12:56:45.450Z,12.77
2016-10-29T12:57:45.774Z,12.78
2016-10-29T12:59:00.419Z,12.83
2016-10-29T12:59:45.561Z,12.82
2016-10-29T13:00:45.548Z,12.89
2016-10-29T13:01:45.570Z,12.87
2016-10-29T13:02:45.590Z,12.82
2016-10-29T13:03:45.610Z,12.89
2016-10-29T13:04:45.930Z,12.89
2016-10-29T13:06:00.589Z,12.92
2016-10-29T13:06:45.687Z,12.85
2016-10-29T13:07:45.695Z,12.93
2016-10-29T13:08:45.723Z,13.05
2016-10-29T13:09:45.743Z,12.92
2016-10-29T13:10:45.772Z,12.87
2016-10-29T13:11:45.793Z,12.85
2016-10-29T13:12:45.814Z,12.89
2016-10-29T13:14:00.756Z,12.85
2016-10-29T13:15:45.881Z,12.85
2016-10-29T13:16:45.900Z,12.92
2016-10-29T13:17:45.929Z,12.87
2016-10-29T13:18:45.948Z,12.92
2016-10-29T13:19:45.973Z,12.93
2016-10-29T13:20:45.988Z,12.9
2016-10-29T13:22:00.931Z,12.95
2016-10-29T13:22:46.050Z,13.05
2016-10-29T13:23:46.064Z,13.05
2016-10-29T13:24:46.083Z,13.05
2016-10-29T13:25:46.110Z,13.11
2016-10-29T13:26:46.126Z,13.08
2016-10-29T13:27:46.151Z,13.14
2016-10-29T13:28:46.167Z,13.03
2016-10-29T13:29:46.195Z,13.03
2016-10-29T13:30:46.217Z,13.05
2016-10-29T13:31:46.239Z,13
2016-10-29T13:32:46.266Z,13.26
2016-10-29T13:33:46.283Z,13.15
2016-10-29T13:34:46.312Z,13.11
2016-10-29T13:35:46.331Z,13.25
2016-10-29T13:37:01.275Z,13.17
2016-10-29T13:37:46.377Z,13.19
2016-10-29T13:38:46.399Z,13.14
2016-10-29T13:39:46.674Z,13.14
2016-10-29T13:40:46.448Z,13.1
2016-10-29T13:41:47.023Z,13.03
2016-10-29T13:42:46.495Z,13.01
2016-10-29T13:44:01.435Z,13.12
2016-10-29T13:44:46.536Z,13.15
2016-10-29T13:45:46.554Z,13.05
2016-10-29T13:46:46.587Z,12.96
2016-10-29T13:47:46.608Z,13.11